createdAt,value
2019-05-03T00:00:14.091Z,9.33
2019-05-03T00:03:08.275Z,9.18
2019-05-03T00:05:56.386Z,9.14
2019-05-03T00:08:25.595Z,9.10
2019-05-03T00:10:54.777Z,9.07
2019-05-03T00:13:23.910Z,9.19
2019-05-03T00:16:17.582Z,9.21
2019-05-03T00:18:46.833Z,9.12
2019-05-03T00:21:15.987Z,9.17
2019-05-03T00:23:45.131Z,9.04
2019-05-03T00:26:14.304Z,9.08
2019-05-03T00:28:43.433Z,8.95
2019-05-03T00:31:12.654Z,8.84
2019-05-03T00:33:43.425Z,8.71
2019-05-03T00:36:41.941Z,8.68
2019-05-03T00:39:39.402Z,8.57
2019-05-03T00:42:08.557Z,8.48
2019-05-03T00:44:37.694Z,8.28
2019-05-03T00:47:06.859Z,8.06
2019-05-03T00:49:35.993Z,7.84
2019-05-03T00:52:05.157Z,7.68
2019-05-03T00:54:34.289Z,7.75
2019-05-03T00:57:03.477Z,7.64
2019-05-03T00:59:32.762Z,7.71
2019-05-03T01:02:02.683Z,7.68
2019-05-03T01:04:32.001Z,7.81
2019-05-03T01:07:02.256Z,7.87
2019-05-03T01:09:31.893Z,7.96
2019-05-03T01:12:01.922Z,7.97
2019-05-03T01:14:31.747Z,8.01
2019-05-03T01:17:02.648Z,8.09
2019-05-03T01:19:33.824Z,8.16
2019-05-03T01:22:02.957Z,8.22
2019-05-03T01:24:32.402Z,8.23
2019-05-03T01:27:02.044Z,8.23
2019-05-03T01:29:32.262Z,8.07
2019-05-03T01:32:02.339Z,7.98
2019-05-03T01:34:32.674Z,7.65
2019-05-03T01:37:02.651Z,7.70
2019-05-03T01:39:32.006Z,7.74
2019-05-03T01:42:02.707Z,7.74
2019-05-03T01:44:32.674Z,8.03
2019-05-03T01:47:04.750Z,7.96
2019-05-03T01:49:42.610Z,8.09
2019-05-03T01:52:16.508Z,7.97
2019-05-03T01:54:45.686Z,7.97
2019-05-03T01:57:14.817Z,8.03
2019-05-03T01:59:44.014Z,7.99
2019-05-03T02:02:26.474Z,7.88
2019-05-03T02:05:13.296Z,7.74
2019-05-03T02:07:42.446Z,7.56
2019-05-03T02:10:12.066Z,7.35
2019-05-03T02:12:41.688Z,7.26
2019-05-03T02:15:11.911Z,7.09
2019-05-03T02:17:42.721Z,7.00
2019-05-03T02:20:12.709Z,7.15
2019-05-03T02:22:42.781Z,7.33
2019-05-03T02:25:12.524Z,7.52
2019-05-03T02:27:42.387Z,7.69
2019-05-03T02:30:14.070Z,7.74
2019-05-03T02:32:44.214Z,7.95
2019-05-03T02:35:14.265Z,7.94
2019-05-03T02:37:45.634Z,7.85
2019-05-03T02:40:15.362Z,8.01
2019-05-03T02:43:05.734Z,8.11
2019-05-03T02:45:38.538Z,8.03
2019-05-03T02:48:16.540Z,8.02
2019-05-03T02:50:46.010Z,8.06
2019-05-03T02:53:15.786Z,8.05
2019-05-03T02:55:45.515Z,8.03
2019-05-03T02:58:15.906Z,8.03
2019-05-03T03:00:57.244Z,8.13
2019-05-03T03:03:27.767Z,8.01
2019-05-03T03:05:58.634Z,8.14
2019-05-03T03:08:32.824Z,7.90
2019-05-03T03:11:02.280Z,7.94
2019-05-03T03:13:33.243Z,7.93
2019-05-03T03:16:06.750Z,8.05
2019-05-03T03:18:37.795Z,8.01
2019-05-03T03:21:11.164Z,8.04
2019-05-03T03:24:10.147Z,8.03
2019-05-03T03:26:43.181Z,8.13
2019-05-03T03:29:16.093Z,8.02
2019-05-03T03:32:29.791Z,8.00
2019-05-03T03:35:13.103Z,7.91
2019-05-03T03:37:42.500Z,7.90
2019-05-03T03:40:13.114Z,7.95
2019-05-03T03:42:44.980Z,7.97
2019-05-03T03:45:16.509Z,8.00
2019-05-03T03:47:47.990Z,7.89
2019-05-03T03:50:17.164Z,8.06
2019-05-03T03:52:48.226Z,7.84
2019-05-03T03:55:17.385Z,8.05
2019-05-03T03:57:47.051Z,7.97
2019-05-03T04:00:16.487Z,7.98
2019-05-03T04:02:45.982Z,8.06
2019-05-03T04:05:16.036Z,8.11
2019-05-03T04:07:46.358Z,8.04
2019-05-03T04:10:16.003Z,8.01
2019-05-03T04:12:46.646Z,8.05
2019-05-03T04:15:36.645Z,7.97
2019-05-03T04:18:21.668Z,7.96
2019-05-03T04:20:51.029Z,7.90
2019-05-03T04:23:20.378Z,7.90
2019-05-03T04:25:49.994Z,7.92
2019-05-03T04:28:19.173Z,7.97
2019-05-03T04:30:48.314Z,8.05
2019-05-03T04:33:17.491Z,8.01
2019-05-03T04:35:46.871Z,8.01
2019-05-03T04:38:16.496Z,8.04
2019-05-03T04:40:45.928Z,8.03
2019-05-03T04:43:16.521Z,8.04
2019-05-03T04:46:00.520Z,8.01
2019-05-03T04:48:29.685Z,8.14
2019-05-03T04:50:58.820Z,8.24
2019-05-03T04:53:28.820Z,8.19
2019-05-03T04:55:57.968Z,8.31
2019-05-03T04:58:27.159Z,8.31
2019-05-03T05:00:56.313Z,8.39
2019-05-03T05:03:26.525Z,8.55
2019-05-03T05:05:59.562Z,8.36
2019-05-03T05:08:26.809Z,8.50
2019-05-03T05:10:56.069Z,8.42
2019-05-03T05:13:25.213Z,8.50
2019-05-03T05:15:55.091Z,8.39
2019-05-03T05:18:30.560Z,8.40
2019-05-03T05:21:22.019Z,8.58
2019-05-03T05:24:01.814Z,8.67
2019-05-03T05:26:40.931Z,8.59
2019-05-03T05:29:11.950Z,8.69
2019-05-03T05:31:41.315Z,8.76
2019-05-03T05:34:10.475Z,8.70
2019-05-03T05:36:39.612Z,8.58
2019-05-03T05:39:09.406Z,8.82
2019-05-03T05:41:38.554Z,8.84
2019-05-03T05:44:07.713Z,8.98
2019-05-03T05:46:45.421Z,8.90
2019-05-03T05:49:16.442Z,8.97
2019-05-03T05:51:45.594Z,9.03
2019-05-03T05:54:14.761Z,9.09
2019-05-03T05:57:00.624Z,9.38
2019-05-03T05:59:48.744Z,9.68
2019-05-03T06:02:18.776Z,9.65
2019-05-03T06:04:47.963Z,9.41
2019-05-03T06:07:48.139Z,9.54
2019-05-03T06:10:55.375Z,10.04
2019-05-03T06:13:37.889Z,10.41
2019-05-03T06:16:24.641Z,10.57
2019-05-03T06:19:14.712Z,10.85
2019-05-03T06:21:50.165Z,10.07
2019-05-03T06:24:25.430Z,9.83
2019-05-03T06:27:02.287Z,9.93
2019-05-03T06:29:31.452Z,9.97
2019-05-03T06:32:15.606Z,10.31
2019-05-03T06:34:45.519Z,10.56
2019-05-03T06:37:16.849Z,10.75
2019-05-03T06:39:46.059Z,10.58
2019-05-03T06:42:19.166Z,10.71
2019-05-03T06:44:46.164Z,10.79
2019-05-03T06:47:15.306Z,10.97
2019-05-03T06:49:48.340Z,10.35
2019-05-03T06:52:19.846Z,10.90
2019-05-03T06:54:46.331Z,10.94
2019-05-03T06:57:17.352Z,10.42
2019-05-03T07:00:01.040Z,10.27
2019-05-03T07:02:55.154Z,12.12
2019-05-03T07:05:44.426Z,14.48
2019-05-03T07:08:31.584Z,17.06
2019-05-03T07:11:01.617Z,15.74
2019-05-03T07:13:30.922Z,17.38
2019-05-03T07:16:00.127Z,17.20
2019-05-03T07:18:29.281Z,17.42
2019-05-03T07:20:58.745Z,16.71
2019-05-03T07:23:27.907Z,16.17
2019-05-03T07:25:57.078Z,15.16
2019-05-03T07:28:26.229Z,16.08
2019-05-03T07:30:55.444Z,15.97
2019-05-03T07:33:30.070Z,14.88
2019-05-03T07:35:59.239Z,15.68
2019-05-03T07:38:28.395Z,15.03
2019-05-03T07:40:57.600Z,14.60
2019-05-03T07:43:26.748Z,12.94
2019-05-03T07:45:55.919Z,11.82
2019-05-03T07:48:25.588Z,11.92
2019-05-03T07:50:55.243Z,16.04
2019-05-03T07:53:25.178Z,17.90
2019-05-03T07:56:05.058Z,18.77
2019-05-03T07:58:35.125Z,17.78
2019-05-03T08:01:10.006Z,18.08
2019-05-03T08:03:38.249Z,16.03
2019-05-03T08:06:07.461Z,15.41
2019-05-03T08:08:36.605Z,14.99
2019-05-03T08:11:05.790Z,14.93
2019-05-03T08:13:35.626Z,17.62
2019-05-03T08:16:05.876Z,16.37
2019-05-03T08:18:35.616Z,14.70
2019-05-03T08:21:05.659Z,13.28
2019-05-03T08:23:35.489Z,12.53
2019-05-03T08:26:05.761Z,13.36
2019-05-03T08:28:35.410Z,12.90
2019-05-03T08:31:26.667Z,12.45
2019-05-03T08:34:20.761Z,11.91
2019-05-03T08:37:17.828Z,11.59
2019-05-03T08:39:46.987Z,11.54
2019-05-03T08:42:25.435Z,12.64
2019-05-03T08:44:55.304Z,13.22
2019-05-03T08:47:24.888Z,12.46
2019-05-03T08:49:55.415Z,12.33
2019-05-03T08:52:24.950Z,12.21
2019-05-03T08:54:54.986Z,12.81
2019-05-03T08:57:25.420Z,16.13
2019-05-03T08:59:55.063Z,14.72
2019-05-03T09:02:25.823Z,13.79
2019-05-03T09:04:55.106Z,14.45
2019-05-03T09:07:25.352Z,14.10
2019-05-03T09:10:16.935Z,12.94
2019-05-03T09:13:09.249Z,12.43
2019-05-03T09:15:39.097Z,12.78
2019-05-03T09:18:08.964Z,12.35
2019-05-03T09:20:38.181Z,12.39
2019-05-03T09:23:07.360Z,13.26
2019-05-03T09:25:36.705Z,13.08
2019-05-03T09:28:06.295Z,12.95
2019-05-03T09:30:35.874Z,13.60
2019-05-03T09:33:08.836Z,15.03
2019-05-03T09:35:36.327Z,16.76
2019-05-03T09:38:05.929Z,16.77
2019-05-03T09:40:35.437Z,17.47
2019-05-03T09:43:04.911Z,16.17
2019-05-03T09:45:35.286Z,17.92
2019-05-03T09:48:05.744Z,16.21
2019-05-03T09:50:35.863Z,15.12
2019-05-03T09:53:05.611Z,14.54
2019-05-03T09:55:38.198Z,14.40
2019-05-03T09:58:07.390Z,14.46
2019-05-03T10:00:36.612Z,13.99
2019-05-03T10:03:06.196Z,12.49
2019-05-03T10:05:35.394Z,12.50
2019-05-03T10:08:05.214Z,12.71
2019-05-03T10:10:52.500Z,14.48
2019-05-03T10:13:23.759Z,14.93
2019-05-03T10:15:54.817Z,16.40
2019-05-03T10:18:25.510Z,18.41
2019-05-03T10:20:56.211Z,17.36
2019-05-03T10:23:39.441Z,16.80
2019-05-03T10:26:09.362Z,17.65
2019-05-03T10:28:38.843Z,19.63
2019-05-03T10:31:08.114Z,17.33
2019-05-03T10:33:51.368Z,14.46
2019-05-03T10:36:20.582Z,13.98
2019-05-03T10:38:49.769Z,14.66
2019-05-03T10:41:18.943Z,14.94
2019-05-03T10:43:48.085Z,14.46
2019-05-03T10:46:17.260Z,14.53
2019-05-03T10:48:46.436Z,13.56
2019-05-03T10:51:16.019Z,12.72
2019-05-03T10:53:48.299Z,12.44
2019-05-03T10:56:39.305Z,12.73
2019-05-03T10:59:09.440Z,12.24
2019-05-03T11:01:49.334Z,12.32
2019-05-03T11:04:18.554Z,14.33
2019-05-03T11:06:47.768Z,17.43
2019-05-03T11:09:16.954Z,18.52
2019-05-03T11:11:46.112Z,16.25
2019-05-03T11:14:15.251Z,15.97
2019-05-03T11:16:46.044Z,15.43
2019-05-03T11:19:15.313Z,18.53
2019-05-03T11:21:45.539Z,21.59
2019-05-03T11:24:15.067Z,21.59
2019-05-03T11:26:45.904Z,20.76
2019-05-03T11:29:15.866Z,19.54
2019-05-03T11:32:01.627Z,18.55
2019-05-03T11:34:36.827Z,19.51
2019-05-03T11:37:25.208Z,20.69
2019-05-03T11:39:55.860Z,20.48
2019-05-03T11:42:25.389Z,23.23
2019-05-03T11:44:54.643Z,22.37
2019-05-03T11:47:25.583Z,20.17
2019-05-03T11:49:55.808Z,21.21
2019-05-03T11:52:25.869Z,22.47
2019-05-03T11:54:55.365Z,22.06
2019-05-03T11:57:27.228Z,20.23
2019-05-03T12:00:33.033Z,20.88
2019-05-03T12:03:12.785Z,22.93
2019-05-03T12:05:44.566Z,21.51
2019-05-03T12:08:14.754Z,24.26
2019-05-03T12:10:53.052Z,24.70
2019-05-03T12:13:34.038Z,23.04
2019-05-03T12:16:14.755Z,19.18
2019-05-03T12:18:47.905Z,18.53
2019-05-03T12:21:08.597Z,16.66
2019-05-03T12:23:37.478Z,17.48
2019-05-03T12:26:12.791Z,18.39
2019-05-03T12:28:38.474Z,17.01
2019-05-03T12:31:07.917Z,15.63
2019-05-03T12:33:37.238Z,15.27
2019-05-03T12:36:07.368Z,19.88
2019-05-03T12:38:36.760Z,21.96
2019-05-03T12:41:06.218Z,22.09
2019-05-03T12:43:35.750Z,22.10
2019-05-03T12:46:05.331Z,22.12
2019-05-03T12:48:35.468Z,23.04
2019-05-03T12:51:06.267Z,23.70
2019-05-03T12:53:36.408Z,23.02
2019-05-03T12:56:11.119Z,24.12
2019-05-03T12:58:49.796Z,22.47
2019-05-03T13:01:41.707Z,21.79
2019-05-03T13:04:15.693Z,23.56
2019-05-03T13:06:49.577Z,24.83
2019-05-03T13:09:19.004Z,22.59
2019-05-03T13:11:54.813Z,20.29
2019-05-03T13:14:21.781Z,20.41
2019-05-03T13:16:51.157Z,22.22
2019-05-03T13:19:20.650Z,20.74
2019-05-03T13:21:50.174Z,22.08
2019-05-03T13:24:23.222Z,22.07
2019-05-03T13:26:51.763Z,19.44
2019-05-03T13:29:21.122Z,18.10
2019-05-03T13:32:00.716Z,18.71
2019-05-03T13:34:21.566Z,17.59
2019-05-03T13:36:50.963Z,17.96
2019-05-03T13:39:20.430Z,17.96
2019-05-03T13:41:49.812Z,18.70
2019-05-03T13:44:19.170Z,20.39
2019-05-03T13:46:48.504Z,22.09
2019-05-03T13:49:17.895Z,22.07
2019-05-03T13:51:47.221Z,22.52
2019-05-03T13:54:16.627Z,20.45
2019-05-03T13:56:45.903Z,20.85
2019-05-03T13:59:19.842Z,22.30
2019-05-03T14:01:46.324Z,23.96
2019-05-03T14:04:15.886Z,22.54
2019-05-03T14:06:45.242Z,21.91
2019-05-03T14:09:14.636Z,22.55
2019-05-03T14:11:44.809Z,22.86
2019-05-03T14:14:15.229Z,21.34
2019-05-03T14:16:45.245Z,20.54
2019-05-03T14:19:20.833Z,21.95
2019-05-03T14:21:54.617Z,20.60
2019-05-03T14:24:24.542Z,21.30
2019-05-03T14:26:55.101Z,22.02
2019-05-03T14:29:25.363Z,21.53
2019-05-03T14:31:54.753Z,20.62
2019-05-03T14:34:25.701Z,21.19
2019-05-03T14:36:55.534Z,21.39
2019-05-03T14:39:25.398Z,21.45
2019-05-03T14:41:55.573Z,19.46
2019-05-03T14:46:51.633Z,19.14
2019-05-03T14:49:20.906Z,18.13
2019-05-03T14:51:50.236Z,19.89
2019-05-03T14:54:21.367Z,19.96
2019-05-03T14:57:07.657Z,19.77
2019-05-03T15:00:16.840Z,19.53
2019-05-03T15:02:57.902Z,19.27
2019-05-03T15:05:26.337Z,19.74
2019-05-03T15:07:55.987Z,19.98
2019-05-03T15:10:25.780Z,19.59
2019-05-03T15:12:55.648Z,17.84
2019-05-03T15:15:25.223Z,17.61
2019-05-03T15:17:55.019Z,17.89
2019-05-03T15:20:25.505Z,18.00
2019-05-03T15:22:55.218Z,17.95
2019-05-03T15:25:25.115Z,17.25
2019-05-03T15:27:55.381Z,17.43
2019-05-03T15:30:25.584Z,17.27
2019-05-03T15:33:00.420Z,16.89
2019-05-03T15:35:26.375Z,15.82
2019-05-03T15:37:55.932Z,15.85
2019-05-03T15:40:25.480Z,16.35
2019-05-03T15:43:05.387Z,16.35
2019-05-03T15:46:11.311Z,16.98
2019-05-03T15:48:46.341Z,15.45
2019-05-03T15:51:15.769Z,15.94
2019-05-03T15:53:45.020Z,15.81
2019-05-03T15:56:14.773Z,16.10
2019-05-03T15:58:46.754Z,16.61
2019-05-03T16:01:15.453Z,16.98
2019-05-03T16:03:45.022Z,16.34
2019-05-03T16:06:15.588Z,15.40
2019-05-03T16:08:45.204Z,15.14
2019-05-03T16:11:14.958Z,14.86
2019-05-03T16:13:44.844Z,14.38
2019-05-03T16:16:15.221Z,14.40
2019-05-03T16:18:45.080Z,14.88
2019-05-03T16:21:14.779Z,15.12
2019-05-03T16:23:46.371Z,14.99
2019-05-03T16:26:15.305Z,15.23
2019-05-03T16:28:55.453Z,14.90
2019-05-03T16:31:26.662Z,14.85
2019-05-03T16:33:56.197Z,14.47
2019-05-03T16:36:25.649Z,14.13
2019-05-03T16:38:55.454Z,14.26
2019-05-03T16:41:25.013Z,14.21
2019-05-03T16:43:54.508Z,14.02
2019-05-03T16:46:23.854Z,13.82
2019-05-03T16:48:53.216Z,14.01
2019-05-03T16:51:22.792Z,14.25
2019-05-03T16:53:52.158Z,14.07
2019-05-03T16:56:21.628Z,14.07
2019-05-03T16:58:51.114Z,13.99
2019-05-03T17:01:20.543Z,14.24
2019-05-03T17:03:54.994Z,14.17
2019-05-03T17:06:40.753Z,14.11
2019-05-03T17:09:18.628Z,13.78
2019-05-03T17:12:06.350Z,13.63
2019-05-03T17:14:35.740Z,13.49
2019-05-03T17:17:07.245Z,13.43
2019-05-03T17:19:36.129Z,13.19
2019-05-03T17:22:05.725Z,13.16
2019-05-03T17:24:35.400Z,13.40
2019-05-03T17:27:04.899Z,13.31
2019-05-03T17:29:35.072Z,13.49
2019-05-03T17:32:05.084Z,13.62
2019-05-03T17:34:34.816Z,13.29
2019-05-03T17:37:05.034Z,13.30
2019-05-03T17:40:03.102Z,12.80
2019-05-03T17:42:50.022Z,12.71
2019-05-03T17:45:25.381Z,12.44
2019-05-03T17:47:54.939Z,12.24
2019-05-03T17:50:24.455Z,11.83
2019-05-03T17:53:11.264Z,11.85
2019-05-03T17:56:05.282Z,11.85
2019-05-03T17:58:44.323Z,11.82
2019-05-03T18:01:38.481Z,11.50
2019-05-03T18:04:15.750Z,11.27
2019-05-03T18:06:55.597Z,11.32
2019-05-03T18:09:29.138Z,11.24
2019-05-03T18:11:59.700Z,11.33
2019-05-03T18:14:29.064Z,11.22
2019-05-03T18:16:58.381Z,11.26
2019-05-03T18:19:27.788Z,11.25
2019-05-03T18:21:57.143Z,11.13
2019-05-03T18:24:26.585Z,11.21
2019-05-03T18:26:55.906Z,11.14
2019-05-03T18:29:25.347Z,11.14
2019-05-03T18:31:55.051Z,11.12
2019-05-03T18:34:24.985Z,11.07
2019-05-03T18:36:54.947Z,11.06
2019-05-03T18:39:25.234Z,10.99
2019-05-03T18:41:54.884Z,10.78
2019-05-03T18:44:46.580Z,10.75
2019-05-03T18:47:19.896Z,10.61
2019-05-03T18:49:49.318Z,10.53
2019-05-03T18:52:18.828Z,10.36
2019-05-03T18:54:48.207Z,10.30
2019-05-03T18:57:17.519Z,10.12
2019-05-03T18:59:46.949Z,9.97
2019-05-03T19:02:16.343Z,9.99
2019-05-03T19:04:49.622Z,10.03
2019-05-03T19:07:36.772Z,9.99
2019-05-03T19:10:28.845Z,9.83
2019-05-03T19:13:11.015Z,9.80
2019-05-03T19:15:40.447Z,9.71
2019-05-03T19:18:30.519Z,9.57
2019-05-03T19:21:00.245Z,9.55
2019-05-03T19:23:29.660Z,9.43
2019-05-03T19:25:59.146Z,9.40
2019-05-03T19:28:28.480Z,9.34
2019-05-03T19:30:57.762Z,9.22
2019-05-03T19:33:27.056Z,9.12
2019-05-03T19:35:56.429Z,9.03
2019-05-03T19:38:25.822Z,9.13
2019-05-03T19:40:55.159Z,9.06
2019-05-03T19:43:27.035Z,8.99
2019-05-03T19:45:55.674Z,9.12
2019-05-03T19:48:25.686Z,9.18
2019-05-03T19:50:55.085Z,9.19
2019-05-03T19:53:49.335Z,9.02
2019-05-03T19:56:20.750Z,9.07
2019-05-03T19:58:52.495Z,9.10
2019-05-03T20:01:40.759Z,8.93
2019-05-03T20:04:42.256Z,8.98
2019-05-03T20:07:36.861Z,9.12
2019-05-03T20:10:07.638Z,9.16
2019-05-03T20:12:38.064Z,9.25
2019-05-03T20:15:07.891Z,9.09
2019-05-03T20:17:37.299Z,8.98
2019-05-03T20:20:07.074Z,8.99
2019-05-03T20:22:36.352Z,8.98
2019-05-03T20:25:05.903Z,9.10
2019-05-03T20:27:35.393Z,8.93
2019-05-03T20:30:05.891Z,8.76
2019-05-03T20:32:35.867Z,8.88
2019-05-03T20:35:16.742Z,8.77
2019-05-03T20:37:36.481Z,8.72
2019-05-03T20:40:06.372Z,8.73
2019-05-03T20:43:06.618Z,8.65
2019-05-03T20:45:59.278Z,8.66
2019-05-03T20:48:28.879Z,8.69
2019-05-03T20:50:58.293Z,8.59
2019-05-03T20:53:27.692Z,8.60
2019-05-03T20:55:56.940Z,8.44
2019-05-03T20:58:26.289Z,8.55
2019-05-03T21:00:55.618Z,8.51
2019-05-03T21:03:25.032Z,8.47
2019-05-03T21:05:55.218Z,8.56
2019-05-03T21:08:25.426Z,8.62
2019-05-03T21:10:56.024Z,8.50
2019-05-03T21:13:38.959Z,8.61
2019-05-03T21:16:14.785Z,8.60
2019-05-03T21:18:50.298Z,8.47
2019-05-03T21:21:36.493Z,8.53
2019-05-03T21:24:14.217Z,8.47
2019-05-03T21:26:45.144Z,8.49
2019-05-03T21:29:15.163Z,8.32
2019-05-03T21:31:44.734Z,8.36
2019-05-03T21:34:14.777Z,8.39
2019-05-03T21:36:45.336Z,8.52
2019-05-03T21:39:14.756Z,8.46
2019-05-03T21:41:45.063Z,8.52
2019-05-03T21:44:30.904Z,8.37
2019-05-03T21:47:07.370Z,8.59
2019-05-03T21:49:42.447Z,8.51
2019-05-03T21:52:11.774Z,8.41
2019-05-03T21:54:41.121Z,8.40
2019-05-03T21:57:10.501Z,8.49
2019-05-03T21:59:39.969Z,8.44
2019-05-03T22:02:09.547Z,8.39
2019-05-03T22:04:38.888Z,8.37
2019-05-03T22:07:08.429Z,8.37
2019-05-03T22:09:37.722Z,8.22
2019-05-03T22:12:07.165Z,8.27
2019-05-03T22:17:47.542Z,8.16
2019-05-03T22:20:29.410Z,8.02
2019-05-03T22:23:04.614Z,7.95
2019-05-03T22:25:34.945Z,7.79
2019-05-03T22:28:07.053Z,7.64
2019-05-03T22:30:56.509Z,7.81
2019-05-03T22:33:25.889Z,7.87
2019-05-03T22:36:07.934Z,8.08
2019-05-03T22:38:26.791Z,7.96
2019-05-03T22:40:56.191Z,7.78
2019-05-03T22:43:25.680Z,7.66
2019-05-03T22:45:55.307Z,7.76
2019-05-03T22:48:25.106Z,7.54
2019-05-03T22:50:55.588Z,7.52
2019-05-03T22:53:25.439Z,7.42
2019-05-03T22:55:54.891Z,7.41
2019-05-03T22:58:24.902Z,7.49
2019-05-03T23:00:55.059Z,7.59
2019-05-03T23:03:25.393Z,7.51
2019-05-03T23:05:54.923Z,7.54
2019-05-03T23:08:25.264Z,7.34
2019-05-03T23:10:54.878Z,7.35
2019-05-03T23:13:24.925Z,7.38
2019-05-03T23:15:54.722Z,7.35
2019-05-03T23:18:24.664Z,7.45
2019-05-03T23:21:04.660Z,7.47
2019-05-03T23:23:49.987Z,7.42
2019-05-03T23:26:19.455Z,7.32
2019-05-03T23:28:49.059Z,7.20
2019-05-03T23:31:18.585Z,7.44
2019-05-03T23:33:47.853Z,7.38
2019-05-03T23:36:17.237Z,7.33
2019-05-03T23:38:46.633Z,7.23
2019-05-03T23:41:16.116Z,7.20
2019-05-03T23:43:45.535Z,7.30
2019-05-03T23:46:16.536Z,7.28
2019-05-03T23:48:46.046Z,7.29
2019-05-03T23:51:34.941Z,7.34
2019-05-03T23:54:05.564Z,7.33
2019-05-03T23:56:35.210Z,7.20
2019-05-03T23:59:05.503Z,7.17
